sensor_id;sensor_type;location;lat;lon;timestamp;P1;durP1;ratioP1;P2;durP2;ratioP2
27802;SDS011;15182;48.174;11.562;2023-01-15T00:00:42;3.90;;;3.80;;
27802;SDS011;15182;48.174;11.562;2023-01-15T00:03:14;3.07;;;2.97;;
27802;SDS011;15182;48.174;11.562;2023-01-15T00:05:45;2.93;;;2.93;;
27802;SDS011;15182;48.174;11.562;2023-01-15T00:08:17;3.00;;;2.90;;
27802;SDS011;15182;48.174;11.562;2023-01-15T00:10:48;2.90;;;2.90;;
27802;SDS011;15182;48.174;11.562;2023-01-15T00:13:22;2.70;;;2.70;;
27802;SDS011;15182;48.174;11.562;2023-01-15T00:16:00;2.53;;;2.53;;
27802;SDS011;15182;48.174;11.562;2023-01-15T00:18:32;2.70;;;2.70;;
27802;SDS011;15182;48.174;11.562;2023-01-15T00:21:05;2.47;;;2.47;;
27802;SDS011;15182;48.174;11.562;2023-01-15T00:23:39;3.03;;;2.93;;
27802;SDS011;15182;48.174;11.562;2023-01-15T00:26:29;2.67;;;2.67;;
27802;SDS011;15182;48.174;11.562;2023-01-15T00:29:19;2.90;;;2.90;;
27802;SDS011;15182;48.174;11.562;2023-01-15T00:31:52;2.73;;;2.73;;
27802;SDS011;15182;48.174;11.562;2023-01-15T00:34:30;2.73;;;2.70;;
27802;SDS011;15182;48.174;11.562;2023-01-15T00:37:03;2.73;;;2.73;;
27802;SDS011;15182;48.174;11.562;2023-01-15T00:39:34;2.90;;;2.90;;
27802;SDS011;15182;48.174;11.562;2023-01-15T00:42:05;2.53;;;2.53;;
27802;SDS011;15182;48.174;11.562;2023-01-15T00:44:37;2.73;;;2.73;;
27802;SDS011;15182;48.174;11.562;2023-01-15T00:47:10;3.30;;;3.20;;
27802;SDS011;15182;48.174;11.562;2023-01-15T00:49:42;2.87;;;2.87;;
27802;SDS011;15182;48.174;11.562;2023-01-15T00:52:15;2.90;;;2.70;;
27802;SDS011;15182;48.174;11.562;2023-01-15T00:54:46;2.50;;;2.50;;
27802;SDS011;15182;48.174;11.562;2023-01-15T00:57:18;3.20;;;3.10;;
27802;SDS011;15182;48.174;11.562;2023-01-15T00:59:50;3.07;;;2.97;;
27802;SDS011;15182;48.174;11.562;2023-01-15T01:02:21;2.70;;;2.70;;
27802;SDS011;15182;48.174;11.562;2023-01-15T01:04:54;2.80;;;2.80;;
27802;SDS011;15182;48.174;11.562;2023-01-15T01:07:25;2.93;;;2.93;;
27802;SDS011;15182;48.174;11.562;2023-01-15T01:09:56;2.70;;;2.70;;
27802;SDS011;15182;48.174;11.562;2023-01-15T01:12:27;2.60;;;2.60;;
27802;SDS011;15182;48.174;11.562;2023-01-15T01:15:00;2.67;;;2.67;;
27802;SDS011;15182;48.174;11.562;2023-01-15T01:17:35;2.87;;;2.87;;
27802;SDS011;15182;48.174;11.562;2023-01-15T01:20:11;2.93;;;2.93;;
27802;SDS011;15182;48.174;11.562;2023-01-15T01:22:47;2.70;;;2.70;;
27802;SDS011;15182;48.174;11.562;2023-01-15T01:25:18;2.73;;;2.63;;
27802;SDS011;15182;48.174;11.562;2023-01-15T01:27:50;3.00;;;3.00;;
27802;SDS011;15182;48.174;11.562;2023-01-15T01:30:21;2.80;;;2.80;;
27802;SDS011;15182;48.174;11.562;2023-01-15T01:32:52;2.57;;;2.50;;
27802;SDS011;15182;48.174;11.562;2023-01-15T01:35:25;2.93;;;2.83;;
27802;SDS011;15182;48.174;11.562;2023-01-15T01:37:56;2.70;;;2.70;;
27802;SDS011;15182;48.174;11.562;2023-01-15T01:40:27;2.93;;;2.93;;
27802;SDS011;15182;48.174;11.562;2023-01-15T01:42:59;7.23;;;2.73;;
27802;SDS011;15182;48.174;11.562;2023-01-15T01:45:32;2.63;;;2.63;;
27802;SDS011;15182;48.174;11.562;2023-01-15T01:48:04;2.47;;;2.47;;
27802;SDS011;15182;48.174;11.562;2023-01-15T01:50:39;2.90;;;2.80;;
27802;SDS011;15182;48.174;11.562;2023-01-15T01:53:11;2.97;;;2.87;;
27802;SDS011;15182;48.174;11.562;2023-01-15T01:55:48;2.60;;;2.50;;
27802;SDS011;15182;48.174;11.562;2023-01-15T01:58:21;2.40;;;2.40;;
27802;SDS011;15182;48.174;11.562;2023-01-15T02:00:55;2.77;;;2.77;;
27802;SDS011;15182;48.174;11.562;2023-01-15T02:03:29;2.40;;;2.40;;
27802;SDS011;15182;48.174;11.562;2023-01-15T02:06:05;2.80;;;2.80;;
27802;SDS011;15182;48.174;11.562;2023-01-15T02:08:38;3.07;;;2.87;;
27802;SDS011;15182;48.174;11.562;2023-01-15T02:11:11;2.70;;;2.70;;
27802;SDS011;15182;48.174;11.562;2023-01-15T02:13:52;2.60;;;2.60;;
27802;SDS011;15182;48.174;11.562;2023-01-15T02:16:27;2.80;;;2.80;;
27802;SDS011;15182;48.174;11.562;2023-01-15T02:19:07;2.70;;;2.60;;
27802;SDS011;15182;48.174;11.562;2023-01-15T02:21:52;2.80;;;2.80;;
27802;SDS011;15182;48.174;11.562;2023-01-15T02:24:39;2.70;;;2.60;;
27802;SDS011;15182;48.174;11.562;2023-01-15T02:27:24;2.67;;;2.67;;
27802;SDS011;15182;48.174;11.562;2023-01-15T02:29:58;2.67;;;2.67;;
27802;SDS011;15182;48.174;11.562;2023-01-15T02:32:47;3.40;;;3.30;;
27802;SDS011;15182;48.174;11.562;2023-01-15T02:35:24;3.07;;;3.07;;
27802;SDS011;15182;48.174;11.562;2023-01-15T02:38:04;2.50;;;2.50;;
27802;SDS011;15182;48.174;11.562;2023-01-15T02:40:39;2.60;;;2.50;;
27802;SDS011;15182;48.174;11.562;2023-01-15T02:43:14;2.63;;;2.63;;
27802;SDS011;15182;48.174;11.562;2023-01-15T02:45:52;2.63;;;2.63;;
27802;SDS011;15182;48.174;11.562;2023-01-15T02:48:26;2.83;;;2.83;;
27802;SDS011;15182;48.174;11.562;2023-01-15T02:51:06;3.10;;;3.10;;
27802;SDS011;15182;48.174;11.562;2023-01-15T02:53:43;2.87;;;2.87;;
27802;SDS011;15182;48.174;11.562;2023-01-15T02:56:19;2.80;;;2.70;;
27802;SDS011;15182;48.174;11.562;2023-01-15T02:58:58;2.57;;;2.57;;
27802;SDS011;15182;48.174;11.562;2023-01-15T03:01:35;2.30;;;2.30;;
27802;SDS011;15182;48.174;11.562;2023-01-15T03:04:12;2.50;;;2.50;;
27802;SDS011;15182;48.174;11.562;2023-01-15T03:06:51;2.70;;;2.70;;
27802;SDS011;15182;48.174;11.562;2023-01-15T03:09:32;2.73;;;2.73;;
27802;SDS011;15182;48.174;11.562;2023-01-15T03:12:05;2.80;;;2.80;;
27802;SDS011;15182;48.174;11.562;2023-01-15T03:14:48;2.70;;;2.70;;
27802;SDS011;15182;48.174;11.562;2023-01-15T03:17:22;2.80;;;2.80;;
27802;SDS011;15182;48.174;11.562;2023-01-15T03:20:02;2.63;;;2.63;;
27802;SDS011;15182;48.174;11.562;2023-01-15T03:22:38;2.77;;;2.70;;
27802;SDS011;15182;48.174;11.562;2023-01-15T03:25:16;2.63;;;2.63;;
27802;SDS011;15182;48.174;11.562;2023-01-15T03:27:56;3.07;;;2.97;;
27802;SDS011;15182;48.174;11.562;2023-01-15T03:30:31;2.50;;;2.50;;
27802;SDS011;15182;48.174;11.562;2023-01-15T03:33:03;2.70;;;2.60;;
27802;SDS011;15182;48.174;11.562;2023-01-15T03:35:45;2.97;;;2.97;;
27802;SDS011;15182;48.174;11.562;2023-01-15T03:38:29;2.63;;;2.63;;
27802;SDS011;15182;48.174;11.562;2023-01-15T03:41:07;2.70;;;2.70;;
27802;SDS011;15182;48.174;11.562;2023-01-15T03:43:51;2.90;;;2.90;;
27802;SDS011;15182;48.174;11.562;2023-01-15T03:46:35;2.67;;;2.67;;
27802;SDS011;15182;48.174;11.562;2023-01-15T03:49:16;2.60;;;2.60;;
27802;SDS011;15182;48.174;11.562;2023-01-15T03:51:55;2.50;;;2.50;;
27802;SDS011;15182;48.174;11.562;2023-01-15T03:54:38;2.80;;;2.80;;
27802;SDS011;15182;48.174;11.562;2023-01-15T03:57:16;2.80;;;2.80;;
27802;SDS011;15182;48.174;11.562;2023-01-15T03:59:56;3.27;;;3.10;;
27802;SDS011;15182;48.174;11.562;2023-01-15T04:02:42;3.03;;;2.93;;
27802;SDS011;15182;48.174;11.562;2023-01-15T04:05:17;2.70;;;2.70;;
27802;SDS011;15182;48.174;11.562;2023-01-15T04:07:50;2.90;;;2.90;;
27802;SDS011;15182;48.174;11.562;2023-01-15T04:10:28;3.20;;;3.20;;
27802;SDS011;15182;48.174;11.562;2023-01-15T04:13:01;3.00;;;3.00;;
27802;SDS011;15182;48.174;11.562;2023-01-15T04:15:34;2.90;;;2.90;;
27802;SDS011;15182;48.174;11.562;2023-01-15T04:18:07;3.10;;;3.10;;
27802;SDS011;15182;48.174;11.562;2023-01-15T04:20:38;2.73;;;2.73;;
27802;SDS011;15182;48.174;11.562;2023-01-15T04:23:12;2.70;;;2.70;;
27802;SDS011;15182;48.174;11.562;2023-01-15T04:25:44;2.50;;;2.50;;
27802;SDS011;15182;48.174;11.562;2023-01-15T04:28:15;2.70;;;2.70;;
27802;SDS011;15182;48.174;11.562;2023-01-15T04:30:46;2.87;;;2.77;;
27802;SDS011;15182;48.174;11.562;2023-01-15T04:33:19;2.73;;;2.73;;
27802;SDS011;15182;48.174;11.562;2023-01-15T04:35:50;2.50;;;2.50;;
27802;SDS011;15182;48.174;11.562;2023-01-15T04:38:24;2.70;;;2.70;;
27802;SDS011;15182;48.174;11.562;2023-01-15T04:40:58;2.50;;;2.50;;
27802;SDS011;15182;48.174;11.562;2023-01-15T04:43:49;2.47;;;2.47;;
27802;SDS011;15182;48.174;11.562;2023-01-15T04:46:34;3.10;;;3.00;;
27802;SDS011;15182;48.174;11.562;2023-01-15T04:49:10;2.73;;;2.73;;
27802;SDS011;15182;48.174;11.562;2023-01-15T04:51:44;2.67;;;2.67;;
27802;SDS011;15182;48.174;11.562;2023-01-15T04:54:15;2.40;;;2.40;;
27802;SDS011;15182;48.174;11.562;2023-01-15T04:56:49;2.50;;;2.40;;
27802;SDS011;15182;48.174;11.562;2023-01-15T04:59:23;2.60;;;2.60;;
27802;SDS011;15182;48.174;11.562;2023-01-15T05:01:55;2.53;;;2.53;;
27802;SDS011;15182;48.174;11.562;2023-01-15T05:04:27;2.60;;;2.60;;
27802;SDS011;15182;48.174;11.562;2023-01-15T05:06:59;2.80;;;2.70;;
27802;SDS011;15182;48.174;11.562;2023-01-15T05:09:31;2.77;;;2.77;;
27802;SDS011;15182;48.174;11.562;2023-01-15T05:12:03;2.60;;;2.60;;
27802;SDS011;15182;48.174;11.562;2023-01-15T05:14:36;2.60;;;2.60;;
27802;SDS011;15182;48.174;11.562;2023-01-15T05:17:07;2.50;;;2.50;;
27802;SDS011;15182;48.174;11.562;2023-01-15T05:19:39;2.60;;;2.60;;
27802;SDS011;15182;48.174;11.562;2023-01-15T05:22:11;3.03;;;3.03;;
27802;SDS011;15182;48.174;11.562;2023-01-15T05:24:42;2.60;;;2.60;;
27802;SDS011;15182;48.174;11.562;2023-01-15T05:27:13;2.33;;;2.33;;
27802;SDS011;15182;48.174;11.562;2023-01-15T05:29:44;2.60;;;2.60;;
27802;SDS011;15182;48.174;11.562;2023-01-15T05:32:15;2.40;;;2.40;;
27802;SDS011;15182;48.174;11.562;2023-01-15T05:34:48;2.37;;;2.37;;
27802;SDS011;15182;48.174;11.562;2023-01-15T05:37:19;2.60;;;2.60;;
27802;SDS011;15182;48.174;11.562;2023-01-15T05:39:51;2.50;;;2.50;;
27802;SDS011;15182;48.174;11.562;2023-01-15T05:42:23;2.30;;;2.30;;
27802;SDS011;15182;48.174;11.562;2023-01-15T05:44:54;2.20;;;2.20;;
27802;SDS011;15182;48.174;11.562;2023-01-15T05:47:25;2.30;;;2.30;;
27802;SDS011;15182;48.174;11.562;2023-01-15T05:49:58;2.20;;;2.20;;
27802;SDS011;15182;48.174;11.562;2023-01-15T05:52:29;2.60;;;2.60;;
27802;SDS011;15182;48.174;11.562;2023-01-15T05:55:00;2.10;;;2.10;;
27802;SDS011;15182;48.174;11.562;2023-01-15T05:57:31;2.40;;;2.40;;
27802;SDS011;15182;48.174;11.562;2023-01-15T06:00:03;2.00;;;2.00;;
27802;SDS011;15182;48.174;11.562;2023-01-15T06:02:40;2.50;;;2.50;;
27802;SDS011;15182;48.174;11.562;2023-01-15T06:05:15;2.30;;;2.30;;
27802;SDS011;15182;48.174;11.562;2023-01-15T06:07:47;2.30;;;2.30;;
27802;SDS011;15182;48.174;11.562;2023-01-15T06:10:19;2.07;;;2.07;;
27802;SDS011;15182;48.174;11.562;2023-01-15T06:12:50;2.30;;;2.30;;
27802;SDS011;15182;48.174;11.562;2023-01-15T06:15:21;2.50;;;2.50;;
27802;SDS011;15182;48.174;11.562;2023-01-15T06:17:53;2.20;;;2.20;;
27802;SDS011;15182;48.174;11.562;2023-01-15T06:20:25;2.40;;;2.40;;
27802;SDS011;15182;48.174;11.562;2023-01-15T06:22:57;2.00;;;2.00;;
27802;SDS011;15182;48.174;11.562;2023-01-15T06:25:28;2.20;;;2.20;;
27802;SDS011;15182;48.174;11.562;2023-01-15T06:28:01;2.27;;;2.27;;
27802;SDS011;15182;48.174;11.562;2023-01-15T06:30:34;2.10;;;2.10;;
27802;SDS011;15182;48.174;11.562;2023-01-15T06:33:06;2.40;;;2.40;;
27802;SDS011;15182;48.174;11.562;2023-01-15T06:35:39;2.10;;;2.10;;
27802;SDS011;15182;48.174;11.562;2023-01-15T06:38:10;1.93;;;1.83;;
27802;SDS011;15182;48.174;11.562;2023-01-15T06:40:42;2.73;;;2.20;;
27802;SDS011;15182;48.174;11.562;2023-01-15T06:43:13;1.80;;;1.80;;
27802;SDS011;15182;48.174;11.562;2023-01-15T06:46:02;1.87;;;1.87;;
27802;SDS011;15182;48.174;11.562;2023-01-15T06:48:51;1.90;;;1.90;;
27802;SDS011;15182;48.174;11.562;2023-01-15T06:51:23;2.07;;;2.07;;
27802;SDS011;15182;48.174;11.562;2023-01-15T06:53:55;2.00;;;2.00;;
27802;SDS011;15182;48.174;11.562;2023-01-15T06:56:26;1.87;;;1.87;;
27802;SDS011;15182;48.174;11.562;2023-01-15T06:58:57;2.27;;;2.27;;
27802;SDS011;15182;48.174;11.562;2023-01-15T07:01:28;2.33;;;2.23;;
27802;SDS011;15182;48.174;11.562;2023-01-15T07:03:59;1.70;;;1.70;;
27802;SDS011;15182;48.174;11.562;2023-01-15T07:06:32;2.13;;;2.13;;
27802;SDS011;15182;48.174;11.562;2023-01-15T07:09:03;1.70;;;1.70;;
27802;SDS011;15182;48.174;11.562;2023-01-15T07:11:35;2.13;;;2.13;;
27802;SDS011;15182;48.174;11.562;2023-01-15T07:14:14;2.20;;;2.20;;
27802;SDS011;15182;48.174;11.562;2023-01-15T07:16:47;2.07;;;2.07;;
27802;SDS011;15182;48.174;11.562;2023-01-15T07:19:19;2.20;;;2.10;;
27802;SDS011;15182;48.174;11.562;2023-01-15T07:21:52;2.23;;;2.23;;
27802;SDS011;15182;48.174;11.562;2023-01-15T07:24:23;1.97;;;1.97;;
27802;SDS011;15182;48.174;11.562;2023-01-15T07:26:55;2.23;;;2.13;;
27802;SDS011;15182;48.174;11.562;2023-01-15T07:29:26;2.77;;;2.57;;
27802;SDS011;15182;48.174;11.562;2023-01-15T07:31:57;2.47;;;2.47;;
27802;SDS011;15182;48.174;11.562;2023-01-15T07:34:28;1.80;;;1.80;;
27802;SDS011;15182;48.174;11.562;2023-01-15T07:37:01;2.00;;;2.00;;
27802;SDS011;15182;48.174;11.562;2023-01-15T07:39:32;1.83;;;1.83;;
27802;SDS011;15182;48.174;11.562;2023-01-15T07:42:04;1.80;;;1.80;;
27802;SDS011;15182;48.174;11.562;2023-01-15T07:44:55;1.90;;;1.90;;
27802;SDS011;15182;48.174;11.562;2023-01-15T07:47:44;1.97;;;1.97;;
27802;SDS011;15182;48.174;11.562;2023-01-15T07:50:33;2.00;;;2.00;;
27802;SDS011;15182;48.174;11.562;2023-01-15T07:53:06;1.93;;;1.93;;
27802;SDS011;15182;48.174;11.562;2023-01-15T07:55:37;2.17;;;2.17;;
27802;SDS011;15182;48.174;11.562;2023-01-15T07:58:08;2.30;;;2.20;;
27802;SDS011;15182;48.174;11.562;2023-01-15T08:00:40;2.13;;;2.13;;
27802;SDS011;15182;48.174;11.562;2023-01-15T08:03:11;1.90;;;1.90;;
27802;SDS011;15182;48.174;11.562;2023-01-15T08:05:42;2.10;;;2.10;;
27802;SDS011;15182;48.174;11.562;2023-01-15T08:08:15;1.90;;;1.90;;
27802;SDS011;15182;48.174;11.562;2023-01-15T08:10:47;1.83;;;1.83;;
27802;SDS011;15182;48.174;11.562;2023-01-15T08:13:36;2.00;;;2.00;;
27802;SDS011;15182;48.174;11.562;2023-01-15T08:16:25;1.87;;;1.87;;
27802;SDS011;15182;48.174;11.562;2023-01-15T08:18:56;1.73;;;1.73;;
27802;SDS011;15182;48.174;11.562;2023-01-15T08:21:28;1.90;;;1.90;;
27802;SDS011;15182;48.174;11.562;2023-01-15T08:24:01;2.13;;;2.03;;
27802;SDS011;15182;48.174;11.562;2023-01-15T08:26:33;2.00;;;2.00;;
27802;SDS011;15182;48.174;11.562;2023-01-15T08:29:04;1.80;;;1.80;;
27802;SDS011;15182;48.174;11.562;2023-01-15T08:31:36;2.07;;;2.07;;
27802;SDS011;15182;48.174;11.562;2023-01-15T08:34:07;1.80;;;1.80;;
27802;SDS011;15182;48.174;11.562;2023-01-15T08:36:38;2.07;;;2.07;;
27802;SDS011;15182;48.174;11.562;2023-01-15T08:39:11;1.70;;;1.70;;
27802;SDS011;15182;48.174;11.562;2023-01-15T08:41:43;1.80;;;1.80;;
27802;SDS011;15182;48.174;11.562;2023-01-15T08:44:14;2.00;;;2.00;;
27802;SDS011;15182;48.174;11.562;2023-01-15T08:46:46;1.83;;;1.83;;
27802;SDS011;15182;48.174;11.562;2023-01-15T08:49:18;1.80;;;1.80;;
27802;SDS011;15182;48.174;11.562;2023-01-15T08:51:50;1.87;;;1.87;;
27802;SDS011;15182;48.174;11.562;2023-01-15T08:54:23;1.80;;;1.80;;
27802;SDS011;15182;48.174;11.562;2023-01-15T08:56:54;2.00;;;2.00;;
27802;SDS011;15182;48.174;11.562;2023-01-15T08:59:27;1.93;;;1.93;;
27802;SDS011;15182;48.174;11.562;2023-01-15T09:01:59;2.40;;;2.30;;
27802;SDS011;15182;48.174;11.562;2023-01-15T09:04:30;1.60;;;1.60;;
27802;SDS011;15182;48.174;11.562;2023-01-15T09:07:01;1.73;;;1.73;;
27802;SDS011;15182;48.174;11.562;2023-01-15T09:09:34;1.80;;;1.80;;
27802;SDS011;15182;48.174;11.562;2023-01-15T09:12:06;1.80;;;1.80;;
27802;SDS011;15182;48.174;11.562;2023-01-15T09:14:37;2.03;;;2.03;;
27802;SDS011;15182;48.174;11.562;2023-01-15T09:17:08;1.97;;;1.97;;
27802;SDS011;15182;48.174;11.562;2023-01-15T09:19:39;1.90;;;1.80;;
27802;SDS011;15182;48.174;11.562;2023-01-15T09:22:11;1.90;;;1.90;;
27802;SDS011;15182;48.174;11.562;2023-01-15T09:24:43;1.70;;;1.70;;
27802;SDS011;15182;48.174;11.562;2023-01-15T09:27:15;2.00;;;2.00;;
27802;SDS011;15182;48.174;11.562;2023-01-15T09:29:46;1.87;;;1.87;;
27802;SDS011;15182;48.174;11.562;2023-01-15T09:32:21;1.53;;;1.53;;
27802;SDS011;15182;48.174;11.562;2023-01-15T09:34:53;1.70;;;1.70;;
27802;SDS011;15182;48.174;11.562;2023-01-15T09:37:24;1.87;;;1.87;;
27802;SDS011;15182;48.174;11.562;2023-01-15T09:39:56;2.00;;;2.00;;
27802;SDS011;15182;48.174;11.562;2023-01-15T09:42:32;1.80;;;1.80;;
27802;SDS011;15182;48.174;11.562;2023-01-15T09:45:16;1.70;;;1.70;;
27802;SDS011;15182;48.174;11.562;2023-01-15T09:47:54;1.87;;;1.87;;
27802;SDS011;15182;48.174;11.562;2023-01-15T09:50:39;1.80;;;1.80;;
27802;SDS011;15182;48.174;11.562;2023-01-15T09:53:30;1.70;;;1.70;;
27802;SDS011;15182;48.174;11.562;2023-01-15T09:56:27;1.87;;;1.87;;
27802;SDS011;15182;48.174;11.562;2023-01-15T09:59:02;1.90;;;1.90;;
27802;SDS011;15182;48.174;11.562;2023-01-15T10:01:45;1.70;;;1.70;;
27802;SDS011;15182;48.174;11.562;2023-01-15T10:04:22;3.23;;;1.97;;
27802;SDS011;15182;48.174;11.562;2023-01-15T10:07:05;1.70;;;1.70;;
27802;SDS011;15182;48.174;11.562;2023-01-15T10:09:43;1.90;;;1.90;;
27802;SDS011;15182;48.174;11.562;2023-01-15T10:12:22;1.73;;;1.73;;
27802;SDS011;15182;48.174;11.562;2023-01-15T10:15:14;1.80;;;1.80;;
27802;SDS011;15182;48.174;11.562;2023-01-15T10:17:49;1.73;;;1.73;;
27802;SDS011;15182;48.174;11.562;2023-01-15T10:20:41;1.70;;;1.70;;
27802;SDS011;15182;48.174;11.562;2023-01-15T10:23:25;2.10;;;2.10;;
27802;SDS011;15182;48.174;11.562;2023-01-15T10:26:10;2.03;;;2.03;;
27802;SDS011;15182;48.174;11.562;2023-01-15T10:28:55;2.03;;;2.03;;
27802;SDS011;15182;48.174;11.562;2023-01-15T10:31:33;2.00;;;2.00;;
27802;SDS011;15182;48.174;11.562;2023-01-15T10:37:30;2.10;;;2.10;;
27802;SDS011;15182;48.174;11.562;2023-01-15T10:40:13;1.83;;;1.83;;
27802;SDS011;15182;48.174;11.562;2023-01-15T10:42:52;2.20;;;2.20;;
27802;SDS011;15182;48.174;11.562;2023-01-15T10:45:33;2.07;;;2.07;;
27802;SDS011;15182;48.174;11.562;2023-01-15T10:48:12;2.20;;;2.20;;
27802;SDS011;15182;48.174;11.562;2023-01-15T10:50:47;2.00;;;2.00;;
27802;SDS011;15182;48.174;11.562;2023-01-15T10:53:22;1.90;;;1.90;;
27802;SDS011;15182;48.174;11.562;2023-01-15T10:56:00;2.20;;;2.20;;
27802;SDS011;15182;48.174;11.562;2023-01-15T10:58:38;1.93;;;1.93;;
27802;SDS011;15182;48.174;11.562;2023-01-15T11:01:16;2.30;;;2.30;;
27802;SDS011;15182;48.174;11.562;2023-01-15T11:03:49;2.43;;;2.43;;
27802;SDS011;15182;48.174;11.562;2023-01-15T11:06:22;2.20;;;2.20;;
27802;SDS011;15182;48.174;11.562;2023-01-15T11:08:56;2.30;;;2.30;;
27802;SDS011;15182;48.174;11.562;2023-01-15T11:11:28;2.40;;;2.40;;
27802;SDS011;15182;48.174;11.562;2023-01-15T11:14:31;2.27;;;2.27;;
27802;SDS011;15182;48.174;11.562;2023-01-15T11:17:22;2.47;;;2.47;;
27802;SDS011;15182;48.174;11.562;2023-01-15T11:20:16;2.10;;;2.10;;
27802;SDS011;15182;48.174;11.562;2023-01-15T11:22:57;2.30;;;2.30;;
27802;SDS011;15182;48.174;11.562;2023-01-15T11:25:37;2.50;;;2.50;;
27802;SDS011;15182;48.174;11.562;2023-01-15T11:28:17;2.50;;;2.40;;
27802;SDS011;15182;48.174;11.562;2023-01-15T11:31:01;2.57;;;2.57;;
27802;SDS011;15182;48.174;11.562;2023-01-15T11:33:35;2.40;;;2.40;;
27802;SDS011;15182;48.174;11.562;2023-01-15T11:36:18;2.63;;;2.63;;
27802;SDS011;15182;48.174;11.562;2023-01-15T11:38:52;2.47;;;2.47;;
27802;SDS011;15182;48.174;11.562;2023-01-15T11:41:26;2.30;;;2.30;;
27802;SDS011;15182;48.174;11.562;2023-01-15T11:44:15;2.70;;;2.70;;
27802;SDS011;15182;48.174;11.562;2023-01-15T11:47:09;2.33;;;2.33;;
27802;SDS011;15182;48.174;11.562;2023-01-15T11:50:12;2.70;;;2.70;;
27802;SDS011;15182;48.174;11.562;2023-01-15T11:53:06;2.43;;;2.43;;
27802;SDS011;15182;48.174;11.562;2023-01-15T11:55:51;2.23;;;2.23;;
27802;SDS011;15182;48.174;11.562;2023-01-15T11:58:27;2.40;;;2.40;;
27802;SDS011;15182;48.174;11.562;2023-01-15T12:01:04;2.90;;;2.90;;
27802;SDS011;15182;48.174;11.562;2023-01-15T12:03:35;2.20;;;2.20;;
27802;SDS011;15182;48.174;11.562;2023-01-15T12:06:11;2.60;;;2.60;;
27802;SDS011;15182;48.174;11.562;2023-01-15T12:08:47;2.70;;;2.70;;
27802;SDS011;15182;48.174;11.562;2023-01-15T12:11:26;2.57;;;2.57;;
27802;SDS011;15182;48.174;11.562;2023-01-15T12:17:16;2.50;;;2.50;;
27802;SDS011;15182;48.174;11.562;2023-01-15T12:19:58;2.90;;;2.90;;
27802;SDS011;15182;48.174;11.562;2023-01-15T12:22:43;2.70;;;2.70;;
27802;SDS011;15182;48.174;11.562;2023-01-15T12:25:40;2.80;;;2.80;;
27802;SDS011;15182;48.174;11.562;2023-01-15T12:28:22;2.67;;;2.67;;
27802;SDS011;15182;48.174;11.562;2023-01-15T12:30:59;2.83;;;2.80;;
27802;SDS011;15182;48.174;11.562;2023-01-15T12:33:35;2.67;;;2.67;;
27802;SDS011;15182;48.174;11.562;2023-01-15T12:36:12;3.90;;;2.43;;
27802;SDS011;15182;48.174;11.562;2023-01-15T12:38:50;3.00;;;3.00;;
27802;SDS011;15182;48.174;11.562;2023-01-15T12:41:26;2.87;;;2.87;;
27802;SDS011;15182;48.174;11.562;2023-01-15T12:44:20;2.53;;;2.40;;
27802;SDS011;15182;48.174;11.562;2023-01-15T12:47:17;2.57;;;2.57;;
27802;SDS011;15182;48.174;11.562;2023-01-15T12:49:55;2.70;;;2.70;;
27802;SDS011;15182;48.174;11.562;2023-01-15T12:52:34;2.80;;;2.80;;
27802;SDS011;15182;48.174;11.562;2023-01-15T12:55:13;2.90;;;2.90;;
27802;SDS011;15182;48.174;11.562;2023-01-15T12:57:48;2.63;;;2.63;;
27802;SDS011;15182;48.174;11.562;2023-01-15T13:00:26;2.97;;;2.80;;
27802;SDS011;15182;48.174;11.562;2023-01-15T13:03:09;3.10;;;3.10;;
27802;SDS011;15182;48.174;11.562;2023-01-15T13:05:48;2.87;;;2.87;;
27802;SDS011;15182;48.174;11.562;2023-01-15T13:08:26;2.70;;;2.70;;
27802;SDS011;15182;48.174;11.562;2023-01-15T13:11:04;2.93;;;2.83;;
27802;SDS011;15182;48.174;11.562;2023-01-15T13:13:39;2.77;;;2.77;;
27802;SDS011;15182;48.174;11.562;2023-01-15T13:16:23;2.67;;;2.67;;
27802;SDS011;15182;48.174;11.562;2023-01-15T13:19:07;2.77;;;2.77;;
27802;SDS011;15182;48.174;11.562;2023-01-15T13:21:48;2.97;;;2.97;;
27802;SDS011;15182;48.174;11.562;2023-01-15T13:24:31;2.90;;;2.90;;
27802;SDS011;15182;48.174;11.562;2023-01-15T13:27:40;2.80;;;2.80;;
27802;SDS011;15182;48.174;11.562;2023-01-15T13:30:25;2.93;;;2.93;;
27802;SDS011;15182;48.174;11.562;2023-01-15T13:33:18;3.03;;;3.03;;
27802;SDS011;15182;48.174;11.562;2023-01-15T13:36:00;2.80;;;2.80;;
27802;SDS011;15182;48.174;11.562;2023-01-15T13:38:38;2.77;;;2.77;;
27802;SDS011;15182;48.174;11.562;2023-01-15T13:41:15;2.70;;;2.70;;
27802;SDS011;15182;48.174;11.562;2023-01-15T13:44:10;3.10;;;3.10;;
27802;SDS011;15182;48.174;11.562;2023-01-15T13:46:46;2.67;;;2.67;;
27802;SDS011;15182;48.174;11.562;2023-01-15T13:49:30;3.07;;;3.07;;
27802;SDS011;15182;48.174;11.562;2023-01-15T13:52:06;2.60;;;2.60;;
27802;SDS011;15182;48.174;11.562;2023-01-15T13:54:47;2.90;;;2.90;;
27802;SDS011;15182;48.174;11.562;2023-01-15T13:57:22;2.70;;;2.70;;
27802;SDS011;15182;48.174;11.562;2023-01-15T14:00:03;2.73;;;2.73;;
27802;SDS011;15182;48.174;11.562;2023-01-15T14:02:52;2.40;;;2.40;;
27802;SDS011;15182;48.174;11.562;2023-01-15T14:05:27;3.00;;;3.00;;
27802;SDS011;15182;48.174;11.562;2023-01-15T14:08:13;2.93;;;2.93;;
27802;SDS011;15182;48.174;11.562;2023-01-15T14:10:50;2.70;;;2.70;;
27802;SDS011;15182;48.174;11.562;2023-01-15T14:13:34;2.90;;;2.90;;
27802;SDS011;15182;48.174;11.562;2023-01-15T14:16:21;3.00;;;3.00;;
27802;SDS011;15182;48.174;11.562;2023-01-15T14:19:19;2.63;;;2.63;;
27802;SDS011;15182;48.174;11.562;2023-01-15T14:22:27;2.90;;;2.90;;
27802;SDS011;15182;48.174;11.562;2023-01-15T14:25:22;3.00;;;3.00;;
27802;SDS011;15182;48.174;11.562;2023-01-15T14:28:06;3.20;;;3.20;;
27802;SDS011;15182;48.174;11.562;2023-01-15T14:31:05;2.60;;;2.60;;
27802;SDS011;15182;48.174;11.562;2023-01-15T14:33:53;2.97;;;2.90;;
27802;SDS011;15182;48.174;11.562;2023-01-15T14:36:39;2.77;;;2.77;;
27802;SDS011;15182;48.174;11.562;2023-01-15T14:39:23;2.93;;;2.93;;
27802;SDS011;15182;48.174;11.562;2023-01-15T14:42:04;2.90;;;2.90;;
27802;SDS011;15182;48.174;11.562;2023-01-15T14:44:58;2.70;;;2.70;;
27802;SDS011;15182;48.174;11.562;2023-01-15T14:47:44;2.80;;;2.80;;
27802;SDS011;15182;48.174;11.562;2023-01-15T14:50:23;3.30;;;3.30;;
27802;SDS011;15182;48.174;11.562;2023-01-15T14:53:01;3.20;;;3.20;;
27802;SDS011;15182;48.174;11.562;2023-01-15T14:55:45;2.90;;;2.90;;
27802;SDS011;15182;48.174;11.562;2023-01-15T14:58:29;2.80;;;2.80;;
27802;SDS011;15182;48.174;11.562;2023-01-15T15:01:23;3.40;;;3.40;;
27802;SDS011;15182;48.174;11.562;2023-01-15T15:04:04;2.90;;;2.90;;
27802;SDS011;15182;48.174;11.562;2023-01-15T15:06:52;2.83;;;2.83;;
27802;SDS011;15182;48.174;11.562;2023-01-15T15:09:28;2.83;;;2.83;;
27802;SDS011;15182;48.174;11.562;2023-01-15T15:12:05;2.60;;;2.60;;
27802;SDS011;15182;48.174;11.562;2023-01-15T15:14:51;2.87;;;2.87;;
27802;SDS011;15182;48.174;11.562;2023-01-15T15:17:29;3.17;;;3.17;;
27802;SDS011;15182;48.174;11.562;2023-01-15T15:20:23;3.23;;;3.13;;
27802;SDS011;15182;48.174;11.562;2023-01-15T15:23:09;2.83;;;2.83;;
27802;SDS011;15182;48.174;11.562;2023-01-15T15:25:46;3.17;;;3.17;;
27802;SDS011;15182;48.174;11.562;2023-01-15T15:28:23;3.40;;;3.40;;
27802;SDS011;15182;48.174;11.562;2023-01-15T15:30:55;3.03;;;3.03;;
27802;SDS011;15182;48.174;11.562;2023-01-15T15:33:30;3.37;;;3.33;;
27802;SDS011;15182;48.174;11.562;2023-01-15T15:36:09;3.07;;;3.07;;
27802;SDS011;15182;48.174;11.562;2023-01-15T15:38:40;2.70;;;2.70;;